SCS weather

Scatsta Airport
Shetland Islands, Scotland, United Kingdom

Public forecast

Using degrees Celsius for public forecast. Weather courtesy of forecast.io.

Current aviation weather report (METAR) for Scatsta Airport

Retrieved 2019/10/17 14:20 UTC (38 minutes ago):

EGPM 171420Z 26010KT 9999 FEW014 11/08 Q0999 NOSIG

Aviation forecast (TAF) for Scatsta Airport

Forecast is more than 12 hours old.

Retrieved 2013/04/29 03:39 UTC (6 years ago):

TAF TAF EGPM 290337Z 2903/2915 22005KT 9999 SCT030 PROB30 TEMPO 2903/2906 7000 SHRAGS BECMG 2906/2909 32015KT PROB40 TEMPO 2906/2915 6000 SHRA SHGS BKN012CB